首页
METAR-TAF:

METAR-TAF

机场 :

亨德森, 内华达州, 美国

纬度: 35-58-35N, 经度: 115-07-58W, 海拔: 749米

当前天气观测

该预报发布于33分钟前的23:56 UTC
风速14节,风向西转西南,有时为22节阵风
温度 39°C
湿度 7%
气压 1005 hPa
能見度: 16.1公里
天空无云

METAR: KHND 152356Z 24014G22KT 10SM CLR 39/M03 A2968 RMK AO2 SLP031 T03941028 10406 20356 58016

时间: 17:29 (00:29 UTC)

预报

该预报发布于1小时和9分钟前的23:20 UTC
预报有效从16日的 00点(UTC)到 16日的 24点(UTC)
风速16节,风向西转西南,有时为26节阵风
能見度: 10公里
天空无云
从 16日的 0600点(UTC)
风速15节,风向南转西南,有时为25节阵风
能見度: 10公里
天空无云
从 16日的 1400点(UTC)
风速12节,风向西南
能見度: 10公里
天空无云
从 16日的 2000点(UTC)
风速16节,风向西转西南,有时为26节阵风
能見度: 10公里
天空无云

TAF: KHND 152320Z 1600/1624 24016G26KT P6SM SKC FM160600 20015G25KT P6SM SKC FM161400 22012KT P6SM SKC FM162000 24016G26KT P6SM SKC

超过4000个机场的气象观测和天气预报(METAR&TAF报告)。

可查询的气象台以黄色和红色小点在地图上表示。

将鼠标移到小点上方,可查看气象台名称。

然后点击查看天气观测和预报。

如需切换地图:点击带黑十字的绿色按钮放大地图;点击带横线的绿色按钮缩小地图;或者点击绿色箭头查看邻近地区的地图。


METAR-TAF: